Startpagina
METAR-TAF:

METAR-TAF

Vliegvelden :

Luchthaven Košice

Košice, Slowakije

breedte: 48-39-47N, lengte: 021-14-28E, hoogte: 232 m

Actueel weer

Dit bericht is 24 minuten geleden gemaakt, om 11:30 UTC
Wind 11 kt uit het noordoosten
Temperatuur 13°C
Vochtigheid 44%
Druk 1027 hPa
Zicht 10 km of meer
geen wolken onder 1500 m en geen cumulonimbus

METAR: LZKZ 141130Z 04011KT CAVOK 13/01 Q1027 NOSIG

Tijdstip: 12:54 (11:54 UTC)

Verwachting

Dit bericht is 54 minuten geleden gemaakt, om 11:00 UTC
Verwachting geldig van 14 om 12 UTC tot 15 om 12 UTC
Wind 12 kt uit het noordnoordoosten
Zicht 10 km of meer
geen wolken onder 1500 m en geen cumulonimbus
Tijdelijke
van 14 om 22 UTC tot 15 om 06 UTC
Wind 6 kt uit het noorden
Tijdelijke
van 15 om 08 UTC tot 15 om 12 UTC
Wind 20 kt uit het noordnoordoosten
Zicht 10 km of meer
Verspreide wolken op 4000 ft

TAF: LZKZ 141100Z 1412/1512 02012KT CAVOK TEMPO 1422/1506 01006KT TEMPO 1508/1512 02020KT 9999 SCT040

Waarnemingen en weersverwachtingen van meer dan 4000 vliegvelden (METAR en TAF).

De beschikbare stations zijn de gele en rode punten op de kaart.

Ga met uw muis naar het station om de naam te zien.

Klik dan om waarnemingen en weersverwachtingen te zien.

kaart wijzigen: klik op de groene knoppen met een zwart kruis om in te zoomen, op de groene knop met een streepje om uit te zoomen of op de groene pijlen voor aangrenzende kaarten.


METAR-TAF: